createdAt,value
2023-09-06T00:01:53.500Z,3.97
2023-09-06T00:04:20.159Z,3.75
2023-09-06T00:06:46.766Z,3.75
2023-09-06T00:09:13.349Z,3.72
2023-09-06T00:11:40.899Z,3.78
2023-09-06T00:14:07.576Z,3.75
2023-09-06T00:16:34.056Z,3.47
2023-09-06T00:19:01.564Z,4.53
2023-09-06T00:21:28.692Z,4.03
2023-09-06T00:23:55.486Z,3.78
2023-09-06T00:26:22.016Z,3.75
2023-09-06T00:28:48.619Z,3.70
2023-09-06T00:31:15.269Z,3.78
2023-09-06T00:33:42.966Z,3.55
2023-09-06T00:36:09.461Z,3.50
2023-09-06T00:38:35.967Z,3.55
2023-09-06T00:41:02.469Z,3.90
2023-09-06T00:43:29.927Z,3.53
2023-09-06T00:45:57.187Z,3.85
2023-09-06T00:48:26.805Z,3.38
2023-09-06T00:50:55.612Z,4.28
2023-09-06T00:53:23.807Z,3.65
2023-09-06T00:55:53.625Z,3.58
2023-09-06T00:58:23.628Z,4.05
2023-09-06T01:00:51.095Z,3.90
2023-09-06T01:03:19.639Z,3.78
2023-09-06T01:05:50.226Z,4.00
2023-09-06T01:08:21.419Z,3.42
2023-09-06T01:10:48.064Z,4.07
2023-09-06T01:13:14.552Z,4.30
2023-09-06T01:15:44.212Z,4.85
2023-09-06T01:18:11.252Z,4.13
2023-09-06T01:20:54.081Z,4.03
2023-09-06T01:23:39.850Z,4.47
2023-09-06T01:26:07.008Z,4.43
2023-09-06T01:28:34.138Z,3.88
2023-09-06T01:31:01.627Z,3.95
2023-09-06T01:33:31.632Z,4.45
2023-09-06T01:35:58.553Z,4.35
2023-09-06T01:38:25.459Z,4.72
2023-09-06T01:40:53.135Z,4.68
2023-09-06T01:43:19.732Z,4.85
2023-09-06T01:45:52.547Z,4.57
2023-09-06T01:48:20.165Z,4.63
2023-09-06T01:50:46.869Z,4.45
2023-09-06T01:53:16.179Z,4.13
2023-09-06T01:55:43.588Z,5.18
2023-09-06T01:58:14.020Z,5.07
2023-09-06T02:00:40.752Z,4.47
2023-09-06T02:03:08.803Z,4.97
2023-09-06T02:05:36.310Z,5.07
2023-09-06T02:08:05.306Z,4.78
2023-09-06T02:10:31.764Z,5.55
2023-09-06T02:12:58.314Z,5.28
2023-09-06T02:15:24.833Z,4.75
2023-09-06T02:17:51.396Z,4.72
2023-09-06T02:20:22.403Z,5.15
2023-09-06T02:22:53.548Z,6.43
2023-09-06T02:25:24.966Z,6.07
2023-09-06T02:27:51.956Z,5.50
2023-09-06T02:30:18.504Z,5.03
2023-09-06T02:32:45.241Z,5.88
2023-09-06T02:35:14.711Z,5.45
2023-09-06T02:37:41.131Z,5.28
2023-09-06T02:40:15.137Z,5.25
2023-09-06T02:42:42.193Z,5.43
2023-09-06T02:45:13.230Z,4.75
2023-09-06T02:47:49.371Z,5.10
2023-09-06T02:50:18.102Z,5.28
2023-09-06T02:52:48.026Z,5.60
2023-09-06T02:55:15.113Z,5.32
2023-09-06T02:57:42.666Z,5.07
2023-09-06T03:00:26.553Z,4.95
2023-09-06T03:02:57.150Z,5.60
2023-09-06T03:05:23.739Z,6.30
2023-09-06T03:07:50.700Z,5.57
2023-09-06T03:10:20.840Z,6.05
2023-09-06T03:12:48.752Z,6.47
2023-09-06T03:15:16.685Z,5.55
2023-09-06T03:17:47.974Z,5.80
2023-09-06T03:20:22.960Z,5.82
2023-09-06T03:22:52.529Z,6.30
2023-09-06T03:25:19.090Z,5.55
2023-09-06T03:27:46.122Z,5.13
2023-09-06T03:30:16.380Z,5.10
2023-09-06T03:32:43.960Z,5.30
2023-09-06T03:35:10.754Z,4.97
2023-09-06T03:37:37.272Z,5.15
2023-09-06T03:40:13.874Z,5.38
2023-09-06T03:42:42.211Z,5.43
2023-09-06T03:45:16.533Z,5.05
2023-09-06T03:47:43.249Z,5.72
2023-09-06T03:50:10.267Z,6.18
2023-09-06T03:52:37.356Z,5.50
2023-09-06T03:55:04.344Z,5.53
2023-09-06T03:57:30.891Z,5.78
2023-09-06T03:59:57.414Z,6.22
2023-09-06T04:02:28.412Z,5.78
2023-09-06T04:04:55.425Z,5.63
2023-09-06T04:07:25.631Z,6.03
2023-09-06T04:09:57.492Z,6.10
2023-09-06T04:12:24.077Z,6.80
2023-09-06T04:14:50.700Z,6.15
2023-09-06T04:17:18.545Z,5.93
2023-09-06T04:19:46.144Z,6.03
2023-09-06T04:22:14.186Z,7.47
2023-09-06T04:24:40.687Z,6.20
2023-09-06T04:27:07.192Z,6.97
2023-09-06T04:29:33.725Z,7.25
2023-09-06T04:32:00.348Z,6.78
2023-09-06T04:34:27.747Z,6.68
2023-09-06T04:36:54.261Z,6.78
2023-09-06T04:39:21.475Z,6.60
2023-09-06T04:41:47.999Z,6.97
2023-09-06T04:44:14.517Z,7.22
2023-09-06T04:46:41.078Z,7.18
2023-09-06T04:49:08.253Z,6.50
2023-09-06T04:51:34.774Z,6.80
2023-09-06T04:54:01.478Z,6.78
2023-09-06T04:56:28.022Z,6.70
2023-09-06T04:58:54.560Z,6.72
2023-09-06T05:01:21.057Z,6.95
2023-09-06T05:03:47.658Z,7.25
2023-09-06T05:06:14.708Z,7.30
2023-09-06T05:08:41.334Z,6.82
2023-09-06T05:11:08.033Z,7.28
2023-09-06T05:13:34.622Z,6.90
2023-09-06T05:16:02.654Z,6.78
2023-09-06T05:18:29.577Z,7.22
2023-09-06T05:20:57.130Z,7.47
2023-09-06T05:23:23.676Z,6.95
2023-09-06T05:25:52.205Z,6.82
2023-09-06T05:28:20.042Z,7.45
2023-09-06T05:30:47.718Z,7.55
2023-09-06T05:33:15.216Z,8.07
2023-09-06T05:35:42.638Z,8.40
2023-09-06T05:38:10.441Z,9.38
2023-09-06T05:40:37.148Z,8.63
2023-09-06T05:43:05.178Z,8.23
2023-09-06T05:45:31.863Z,8.23
2023-09-06T05:47:58.619Z,8.65
2023-09-06T05:50:25.280Z,8.07
2023-09-06T05:52:51.768Z,8.10
2023-09-06T05:55:18.493Z,8.30
2023-09-06T05:57:45.251Z,7.78
2023-09-06T06:00:16.900Z,8.45
2023-09-06T06:02:46.216Z,7.60
2023-09-06T06:05:13.450Z,8.02
2023-09-06T06:07:40.658Z,8.00
2023-09-06T06:10:10.877Z,8.27
2023-09-06T06:12:41.136Z,8.20
2023-09-06T06:15:10.405Z,8.10
2023-09-06T06:17:37.965Z,8.93
2023-09-06T06:20:07.921Z,8.43
2023-09-06T06:22:39.063Z,8.90
2023-09-06T06:25:08.216Z,9.02
2023-09-06T06:27:35.229Z,8.45
2023-09-06T06:30:02.042Z,8.60
2023-09-06T06:32:28.633Z,8.45
2023-09-06T06:34:58.045Z,8.90
2023-09-06T06:37:24.624Z,9.18
2023-09-06T06:39:51.236Z,8.35
2023-09-06T06:42:18.038Z,10.05
2023-09-06T06:44:48.474Z,8.63
2023-09-06T06:47:15.230Z,8.77
2023-09-06T06:49:41.848Z,9.30
2023-09-06T06:52:08.488Z,9.38
2023-09-06T06:54:35.742Z,9.48
2023-09-06T06:57:03.046Z,8.25
2023-09-06T06:59:29.629Z,9.27
2023-09-06T07:01:56.305Z,9.90
2023-09-06T07:04:22.998Z,9.48
2023-09-06T07:06:49.512Z,9.25
2023-09-06T07:09:15.996Z,9.40
2023-09-06T07:11:42.461Z,10.82
2023-09-06T07:14:09.030Z,9.40
2023-09-06T07:16:35.762Z,9.65
2023-09-06T07:19:03.733Z,9.80
2023-09-06T07:21:31.255Z,9.93
2023-09-06T07:23:57.710Z,10.65
2023-09-06T07:26:24.375Z,9.95
2023-09-06T07:28:51.237Z,9.45
2023-09-06T07:31:19.042Z,11.10
2023-09-06T07:33:45.954Z,10.20
2023-09-06T07:36:13.360Z,10.13
2023-09-06T07:38:39.901Z,9.75
2023-09-06T07:41:08.419Z,10.30
2023-09-06T07:43:37.388Z,10.05
2023-09-06T07:46:05.345Z,9.80
2023-09-06T07:48:32.491Z,9.75
2023-09-06T07:51:00.415Z,10.00
2023-09-06T07:53:27.725Z,9.73
2023-09-06T07:55:56.455Z,9.50
2023-09-06T07:58:23.591Z,8.68
2023-09-06T08:00:59.167Z,8.90
2023-09-06T08:03:34.765Z,9.55
2023-09-06T08:06:01.345Z,8.00
2023-09-06T08:08:28.158Z,7.22
2023-09-06T08:10:54.824Z,7.95
2023-09-06T08:13:21.401Z,7.75
2023-09-06T08:15:47.957Z,6.43
2023-09-06T08:18:14.562Z,7.63
2023-09-06T08:20:41.157Z,7.28
2023-09-06T08:23:07.649Z,7.10
2023-09-06T08:25:34.927Z,6.43
2023-09-06T08:28:01.653Z,6.40
2023-09-06T08:30:28.612Z,6.50
2023-09-06T08:32:57.089Z,6.38
2023-09-06T08:35:24.592Z,5.10
2023-09-06T08:37:51.623Z,5.93
2023-09-06T08:40:19.798Z,5.20
2023-09-06T08:42:46.641Z,5.57
2023-09-06T08:45:13.129Z,4.72
2023-09-06T08:47:41.191Z,5.18
2023-09-06T08:50:11.924Z,6.05
2023-09-06T08:52:45.528Z,5.20
2023-09-06T08:55:12.609Z,4.88
2023-09-06T08:57:40.254Z,5.32
2023-09-06T09:00:11.015Z,5.43
2023-09-06T09:02:41.771Z,5.57
2023-09-06T09:05:20.298Z,5.40
2023-09-06T09:07:49.281Z,4.25
2023-09-06T09:10:15.797Z,5.05
2023-09-06T09:12:42.710Z,5.90
2023-09-06T09:15:22.743Z,5.00
2023-09-06T09:20:22.256Z,5.18
2023-09-06T09:22:51.435Z,4.88
2023-09-06T09:25:24.302Z,6.05
2023-09-06T09:27:57.610Z,4.85
2023-09-06T09:30:25.384Z,5.32
2023-09-06T09:33:03.501Z,5.57
2023-09-06T09:35:33.019Z,4.68
2023-09-06T09:38:02.653Z,4.45
2023-09-06T09:43:05.699Z,4.65
2023-09-06T09:45:46.927Z,4.88
2023-09-06T09:48:16.267Z,5.63
2023-09-06T09:50:45.271Z,4.50
2023-09-06T09:55:49.182Z,4.75
2023-09-06T09:58:17.400Z,4.13
2023-09-06T10:00:48.569Z,4.47
2023-09-06T10:03:16.015Z,4.28
2023-09-06T10:05:43.709Z,4.07
2023-09-06T10:08:11.435Z,4.15
2023-09-06T10:10:41.823Z,4.13
2023-09-06T10:13:09.649Z,4.03
2023-09-06T10:15:37.731Z,4.35
2023-09-06T10:18:05.804Z,4.15
2023-09-06T10:20:33.533Z,5.55
2023-09-06T10:23:01.112Z,4.60
2023-09-06T10:25:27.907Z,4.78
2023-09-06T10:27:56.290Z,4.10
2023-09-06T10:30:45.526Z,4.45
2023-09-06T10:33:34.973Z,3.88
2023-09-06T10:36:07.561Z,4.10
2023-09-06T10:38:36.721Z,4.18
2023-09-06T10:41:07.919Z,3.85
2023-09-06T10:43:55.372Z,3.50
2023-09-06T10:46:27.876Z,3.63
2023-09-06T10:49:30.542Z,4.20
2023-09-06T10:52:09.367Z,3.65
2023-09-06T10:57:11.412Z,3.00
2023-09-06T10:59:38.239Z,3.20
2023-09-06T11:02:22.468Z,3.03
2023-09-06T11:04:52.028Z,3.13
2023-09-06T11:07:19.044Z,3.10
2023-09-06T11:09:46.393Z,3.10
2023-09-06T11:12:13.864Z,2.80
2023-09-06T11:14:41.766Z,2.95
2023-09-06T11:17:08.511Z,3.15
2023-09-06T11:19:37.929Z,3.78
2023-09-06T11:22:09.368Z,3.22
2023-09-06T11:24:37.051Z,3.90
2023-09-06T11:27:23.284Z,4.60
2023-09-06T11:29:58.722Z,4.05
2023-09-06T11:32:25.455Z,4.45
2023-09-06T11:34:52.127Z,3.13
2023-09-06T11:37:19.779Z,4.28
2023-09-06T11:39:47.059Z,4.28
2023-09-06T11:42:16.607Z,4.00
2023-09-06T11:44:49.010Z,3.67
2023-09-06T11:47:20.168Z,3.72
2023-09-06T11:52:17.179Z,2.65
2023-09-06T11:54:46.049Z,3.45
2023-09-06T11:57:26.919Z,2.75
2023-09-06T11:59:54.809Z,3.22
2023-09-06T12:02:22.445Z,2.65
2023-09-06T12:04:54.284Z,3.13
2023-09-06T12:07:24.681Z,2.83
2023-09-06T12:09:52.048Z,3.10
2023-09-06T12:12:18.584Z,2.97
2023-09-06T12:14:45.509Z,3.47
2023-09-06T12:17:12.671Z,2.70
2023-09-06T12:19:39.262Z,2.83
2023-09-06T12:22:06.551Z,3.50
2023-09-06T12:24:34.994Z,3.10
2023-09-06T12:27:02.051Z,3.00
2023-09-06T12:29:28.692Z,3.17
2023-09-06T12:31:55.242Z,3.13
2023-09-06T12:34:22.720Z,2.97
2023-09-06T12:36:49.269Z,2.63
2023-09-06T12:39:16.313Z,3.30
2023-09-06T12:41:43.509Z,3.03
2023-09-06T12:44:10.092Z,3.13
2023-09-06T12:46:36.685Z,3.08
2023-09-06T12:49:05.513Z,3.03
2023-09-06T12:51:32.115Z,2.80
2023-09-06T12:53:58.592Z,3.22
2023-09-06T12:56:25.131Z,3.00
2023-09-06T12:58:51.596Z,2.83
2023-09-06T13:01:18.099Z,2.97
2023-09-06T13:03:47.611Z,2.83
2023-09-06T13:06:14.308Z,2.72
2023-09-06T13:08:42.779Z,2.22
2023-09-06T13:11:09.470Z,2.95
2023-09-06T13:13:36.825Z,2.92
2023-09-06T13:16:05.901Z,2.33
2023-09-06T13:18:32.789Z,2.42
2023-09-06T13:21:01.050Z,3.00
2023-09-06T13:23:27.553Z,2.92
2023-09-06T13:25:54.046Z,2.80
2023-09-06T13:28:20.546Z,2.53
2023-09-06T13:30:48.779Z,2.70
2023-09-06T13:33:15.426Z,2.60
2023-09-06T13:35:42.012Z,2.40
2023-09-06T13:38:11.422Z,2.47
2023-09-06T13:40:37.957Z,2.55
2023-09-06T13:43:04.491Z,2.60
2023-09-06T13:45:31.150Z,2.90
2023-09-06T13:47:57.917Z,2.65
2023-09-06T13:50:24.580Z,2.85
2023-09-06T13:52:51.180Z,2.38
2023-09-06T13:55:17.754Z,2.60
2023-09-06T13:57:46.774Z,2.70
2023-09-06T14:00:13.751Z,2.78
2023-09-06T14:02:40.454Z,2.92
2023-09-06T14:05:07.619Z,2.65
2023-09-06T14:07:34.272Z,2.47
2023-09-06T14:10:00.841Z,2.80
2023-09-06T14:12:28.094Z,2.83
2023-09-06T14:14:57.608Z,3.33
2023-09-06T14:17:24.219Z,2.63
2023-09-06T14:19:50.937Z,2.38
2023-09-06T14:22:17.441Z,3.13
2023-09-06T14:24:43.925Z,2.70
2023-09-06T14:27:10.500Z,2.40
2023-09-06T14:29:37.068Z,3.58
2023-09-06T14:32:03.793Z,3.08
2023-09-06T14:34:30.261Z,3.50
2023-09-06T14:36:56.836Z,3.30
2023-09-06T14:39:24.420Z,3.10
2023-09-06T14:41:51.069Z,3.72
2023-09-06T14:44:18.625Z,3.83
2023-09-06T14:46:45.356Z,3.40
2023-09-06T14:49:13.368Z,3.72
2023-09-06T14:51:40.139Z,3.35
2023-09-06T14:54:07.442Z,3.20
2023-09-06T14:56:37.422Z,3.50
2023-09-06T14:59:04.655Z,3.40
2023-09-06T15:01:31.296Z,3.28
2023-09-06T15:03:58.190Z,3.60
2023-09-06T15:06:24.764Z,3.20
2023-09-06T15:08:57.730Z,3.30
2023-09-06T15:11:24.390Z,3.45
2023-09-06T15:13:50.912Z,3.10
2023-09-06T15:16:17.438Z,3.63
2023-09-06T15:18:45.980Z,3.25
2023-09-06T15:21:12.606Z,3.60
2023-09-06T15:23:39.212Z,3.83
2023-09-06T15:26:07.509Z,3.03
2023-09-06T15:28:34.107Z,2.80
2023-09-06T15:31:00.758Z,3.03
2023-09-06T15:33:27.442Z,3.30
2023-09-06T15:35:55.733Z,3.38
2023-09-06T15:38:22.392Z,3.38
2023-09-06T15:40:49.843Z,2.70
2023-09-06T15:43:16.495Z,3.28
2023-09-06T15:45:43.348Z,3.60
2023-09-06T15:48:09.851Z,3.10
2023-09-06T15:50:36.452Z,3.00
2023-09-06T15:53:03.136Z,3.58
2023-09-06T15:55:29.742Z,3.60
2023-09-06T15:57:56.438Z,3.33
2023-09-06T16:02:52.613Z,3.30
2023-09-06T16:05:19.567Z,3.47
2023-09-06T16:07:47.133Z,3.25
2023-09-06T16:10:13.700Z,3.25
2023-09-06T16:12:41.828Z,2.80
2023-09-06T16:15:08.959Z,2.80
2023-09-06T16:17:35.461Z,2.83
2023-09-06T16:20:02.086Z,3.20
2023-09-06T16:22:28.564Z,3.05
2023-09-06T16:24:55.857Z,3.60
2023-09-06T16:27:23.083Z,4.00
2023-09-06T16:29:50.174Z,2.85
2023-09-06T16:32:16.858Z,3.38
2023-09-06T16:34:43.988Z,3.90
2023-09-06T16:37:10.572Z,3.20
2023-09-06T16:39:37.183Z,3.83
2023-09-06T16:42:03.912Z,3.13
2023-09-06T16:44:31.269Z,3.30
2023-09-06T16:46:59.649Z,4.20
2023-09-06T16:49:26.831Z,2.80
2023-09-06T16:51:53.611Z,3.13
2023-09-06T16:54:20.452Z,2.92
2023-09-06T16:56:47.413Z,3.53
2023-09-06T16:59:14.165Z,3.45
2023-09-06T17:01:40.930Z,3.10
2023-09-06T17:04:10.626Z,3.95
2023-09-06T17:06:37.176Z,3.15
2023-09-06T17:09:09.579Z,2.88
2023-09-06T17:11:44.033Z,3.20
2023-09-06T17:14:12.237Z,2.97
2023-09-06T17:16:39.026Z,2.92
2023-09-06T17:19:10.058Z,3.15
2023-09-06T17:21:39.815Z,3.40
2023-09-06T17:24:08.301Z,3.03
2023-09-06T17:26:37.569Z,3.25
2023-09-06T17:29:07.390Z,3.22
2023-09-06T17:31:37.166Z,2.95
2023-09-06T17:34:03.786Z,3.22
2023-09-06T17:36:30.397Z,3.40
2023-09-06T17:38:59.717Z,3.13
2023-09-06T17:41:26.569Z,3.10
2023-09-06T17:43:53.190Z,3.22
2023-09-06T17:46:26.212Z,3.70
2023-09-06T17:48:54.204Z,3.45
2023-09-06T17:51:21.709Z,3.95
2023-09-06T17:53:48.784Z,3.40
2023-09-06T17:56:17.529Z,3.65
2023-09-06T17:58:45.671Z,3.65
2023-09-06T18:01:15.212Z,3.03
2023-09-06T18:03:44.750Z,3.38
2023-09-06T18:06:12.788Z,3.47
2023-09-06T18:08:43.635Z,3.53
2023-09-06T18:11:10.646Z,3.45
2023-09-06T18:13:40.591Z,3.28
2023-09-06T18:16:08.479Z,3.40
2023-09-06T18:18:35.216Z,3.60
2023-09-06T18:21:05.141Z,2.83
2023-09-06T18:23:33.132Z,3.35
2023-09-06T18:26:01.802Z,3.47
2023-09-06T18:28:29.055Z,3.97
2023-09-06T18:30:56.318Z,3.40
2023-09-06T18:33:24.026Z,3.47
2023-09-06T18:35:54.608Z,3.65
2023-09-06T18:38:21.901Z,3.30
2023-09-06T18:40:57.554Z,3.40
2023-09-06T18:43:24.287Z,3.13
2023-09-06T18:45:56.436Z,3.42
2023-09-06T18:48:23.539Z,3.72
2023-09-06T18:50:51.194Z,3.60
2023-09-06T18:53:18.428Z,3.63
2023-09-06T18:55:48.595Z,3.58
2023-09-06T18:58:18.249Z,3.80
2023-09-06T19:00:44.986Z,3.38
2023-09-06T19:03:14.880Z,3.42
2023-09-06T19:05:42.852Z,3.72
2023-09-06T19:08:15.429Z,3.65
2023-09-06T19:10:43.311Z,3.75
2023-09-06T19:13:11.203Z,3.95
2023-09-06T19:15:37.705Z,3.25
2023-09-06T19:18:04.866Z,3.47
2023-09-06T19:20:31.477Z,3.65
2023-09-06T19:23:05.984Z,3.60
2023-09-06T19:25:32.590Z,3.53
2023-09-06T19:27:59.122Z,3.40
2023-09-06T19:30:26.755Z,3.72
2023-09-06T19:32:53.334Z,3.35
2023-09-06T19:35:20.063Z,3.22
2023-09-06T19:37:46.748Z,3.47
2023-09-06T19:40:13.282Z,3.72
2023-09-06T19:42:39.819Z,3.53
2023-09-06T19:45:06.939Z,3.60
2023-09-06T19:47:33.990Z,3.50
2023-09-06T19:50:00.841Z,3.53
2023-09-06T19:52:27.551Z,3.42
2023-09-06T19:55:01.401Z,3.63
2023-09-06T19:57:30.705Z,3.53
2023-09-06T19:59:58.275Z,3.42
2023-09-06T20:02:25.075Z,3.55
2023-09-06T20:04:51.898Z,3.22
2023-09-06T20:07:18.596Z,3.42
2023-09-06T20:09:45.091Z,3.53
2023-09-06T20:12:11.653Z,3.88
2023-09-06T20:14:38.140Z,3.60
2023-09-06T20:17:04.907Z,3.63
2023-09-06T20:19:32.342Z,3.55
2023-09-06T20:21:58.973Z,4.13
2023-09-06T20:24:25.628Z,3.80
2023-09-06T20:26:52.348Z,3.63
2023-09-06T20:29:19.124Z,3.35
2023-09-06T20:31:45.885Z,3.58
2023-09-06T20:34:13.467Z,3.50
2023-09-06T20:36:40.051Z,3.70
2023-09-06T20:39:07.979Z,3.80
2023-09-06T20:41:36.274Z,3.30
2023-09-06T20:44:03.166Z,3.08
2023-09-06T20:46:29.761Z,4.10
2023-09-06T20:48:56.516Z,3.70
2023-09-06T20:51:23.755Z,3.97
2023-09-06T20:53:51.880Z,4.30
2023-09-06T20:56:18.620Z,3.85
2023-09-06T20:58:45.515Z,3.85
2023-09-06T21:01:17.013Z,3.83
2023-09-06T21:03:44.502Z,3.40
2023-09-06T21:06:11.964Z,4.03
2023-09-06T21:08:38.810Z,4.25
2023-09-06T21:11:05.430Z,4.10
2023-09-06T21:13:33.339Z,4.20
2023-09-06T21:16:02.259Z,4.38
2023-09-06T21:18:30.016Z,4.32
2023-09-06T21:20:57.455Z,4.57
2023-09-06T21:23:24.048Z,4.28
2023-09-06T21:25:53.283Z,4.25
2023-09-06T21:28:20.096Z,4.60
2023-09-06T21:30:48.429Z,4.78
2023-09-06T21:33:15.757Z,4.43
2023-09-06T21:35:44.025Z,4.45
2023-09-06T21:38:11.298Z,4.53
2023-09-06T21:40:42.283Z,4.28
2023-09-06T21:43:17.770Z,4.50
2023-09-06T21:45:45.254Z,4.70
2023-09-06T21:48:12.040Z,3.90
2023-09-06T21:50:41.175Z,4.20
2023-09-06T21:53:07.905Z,3.90
2023-09-06T21:55:34.546Z,4.05
2023-09-06T21:58:09.820Z,4.13
2023-09-06T22:00:37.528Z,4.30
2023-09-06T22:03:04.558Z,4.28
2023-09-06T22:05:31.173Z,4.43
2023-09-06T22:07:57.725Z,4.15
2023-09-06T22:10:24.287Z,4.32
2023-09-06T22:12:50.912Z,4.55
2023-09-06T22:15:17.540Z,4.10
2023-09-06T22:17:44.128Z,4.18
2023-09-06T22:20:11.335Z,3.97
2023-09-06T22:22:40.327Z,4.15
2023-09-06T22:25:07.680Z,4.10
2023-09-06T22:27:34.699Z,3.83
2023-09-06T22:30:01.876Z,3.83
2023-09-06T22:32:28.564Z,4.28
2023-09-06T22:34:55.291Z,4.10
2023-09-06T22:37:21.875Z,4.10
2023-09-06T22:39:48.633Z,4.13
2023-09-06T22:42:15.259Z,4.10
2023-09-06T22:44:42.003Z,4.13
2023-09-06T22:47:10.149Z,3.70
2023-09-06T22:49:38.696Z,3.60
2023-09-06T22:52:07.154Z,3.40
2023-09-06T22:54:36.837Z,4.03
2023-09-06T22:57:04.516Z,4.20
2023-09-06T22:59:31.464Z,3.95
2023-09-06T23:01:58.265Z,3.45
2023-09-06T23:04:24.911Z,3.72
2023-09-06T23:06:51.436Z,3.85
2023-09-06T23:09:20.133Z,3.90
2023-09-06T23:11:51.171Z,3.90
2023-09-06T23:14:19.298Z,3.95
2023-09-06T23:16:49.186Z,4.18
2023-09-06T23:19:21.770Z,3.60
2023-09-06T23:21:50.639Z,3.55
2023-09-06T23:24:18.731Z,3.70
2023-09-06T23:26:47.689Z,3.78
2023-09-06T23:29:17.450Z,4.10
2023-09-06T23:31:54.321Z,3.47
2023-09-06T23:34:31.383Z,4.15
2023-09-06T23:36:59.163Z,4.00
2023-09-06T23:39:29.440Z,3.88
2023-09-06T23:41:57.980Z,5.20
2023-09-06T23:44:25.265Z,3.28
2023-09-06T23:46:52.046Z,3.92
2023-09-06T23:49:21.124Z,3.92
2023-09-06T23:51:48.280Z,3.42
2023-09-06T23:54:15.290Z,4.05
2023-09-06T23:56:42.083Z,4.25
2023-09-06T23:59:09.014Z,4.60
